createdAt,value
2022-10-20T00:01:26.991Z,102070.56
2022-10-20T00:03:55.288Z,102059.64
2022-10-20T00:06:26.892Z,102051.97
2022-10-20T00:08:56.504Z,102045.32
2022-10-20T00:11:25.772Z,102035.02
2022-10-20T00:13:55.874Z,102036.42
2022-10-20T00:16:27.297Z,102037.81
2022-10-20T00:18:56.078Z,102043.22
2022-10-20T00:21:26.585Z,102029.38
2022-10-20T00:23:54.993Z,102022.06999999999
2022-10-20T00:26:26.515Z,102023.5
2022-10-20T00:28:55.680Z,102023.13
2022-10-20T00:31:25.303Z,102023.95
2022-10-20T00:33:54.946Z,102011.55
2022-10-20T00:36:24.751Z,102008.56
2022-10-20T00:38:57.914Z,102008.26
2022-10-20T00:41:25.981Z,102005.8
2022-10-20T00:43:57.107Z,102013.05
2022-10-20T00:46:29.456Z,102004.57
2022-10-20T00:48:58.479Z,101994.38
2022-10-20T00:51:28.083Z,101988.94
2022-10-20T00:56:24.880Z,101971.51
2022-10-20T00:58:55.058Z,101976.84000000001
2022-10-20T01:01:24.649Z,101974.23999999999
2022-10-20T01:03:54.772Z,101971.66
2022-10-20T01:06:24.517Z,101970.34
2022-10-20T01:08:54.923Z,101973.49
2022-10-20T01:11:32.810Z,101975.2
2022-10-20T01:14:07.912Z,101969.2
2022-10-20T01:16:34.295Z,101972.81
2022-10-20T01:19:02.359Z,101981.69
2022-10-20T01:21:41.342Z,101979.21
2022-10-20T01:24:14.270Z,101972.28
2022-10-20T01:26:44.289Z,101963.28
2022-10-20T01:28:58.871Z,101958.01
2022-10-20T01:31:31.092Z,101958.45000000001
2022-10-20T01:34:04.117Z,101948.69
2022-10-20T01:36:30.191Z,101947.1
2022-10-20T01:39:01.201Z,101941.02
2022-10-20T01:41:33.144Z,101927.89
2022-10-20T01:43:56.137Z,101925.01999999999
2022-10-20T01:46:25.677Z,101922.77
2022-10-20T01:51:24.811Z,101902.8
2022-10-20T01:53:54.519Z,101897.19
2022-10-20T01:56:34.390Z,101892.83
2022-10-20T01:59:08.796Z,101898.87999999999
2022-10-20T02:01:34.309Z,101896.3
2022-10-20T02:03:57.614Z,101900.2
2022-10-20T02:06:36.873Z,101897.72
2022-10-20T02:08:58.958Z,101894.64
2022-10-20T02:11:30.227Z,101889.70000000001
2022-10-20T02:13:56.501Z,101880.70999999999
2022-10-20T02:16:28.832Z,101870.87
2022-10-20T02:21:24.691Z,101864.69
2022-10-20T02:23:59.480Z,101858.73
2022-10-20T02:26:24.559Z,101853.74
2022-10-20T02:28:58.096Z,101854.31999999999
2022-10-20T02:31:25.056Z,101860.16
2022-10-20T02:33:56.412Z,101862.15999999999
2022-10-20T02:36:27.561Z,101861.0
2022-10-20T02:38:55.188Z,101858.29
2022-10-20T02:41:25.745Z,101848.64
2022-10-20T02:43:54.548Z,101841.35
2022-10-20T02:46:24.526Z,101835.36
2022-10-20T02:48:54.595Z,101831.59000000001
2022-10-20T02:51:24.719Z,101820.37
2022-10-20T02:53:54.812Z,101818.95
2022-10-20T02:56:26.459Z,101816.85
2022-10-20T02:58:54.546Z,101817.31
2022-10-20T03:01:24.970Z,101816.44
2022-10-20T03:08:55.065Z,101785.77
2022-10-20T03:11:24.612Z,101772.29999999999
2022-10-20T03:13:54.578Z,101774.67
2022-10-20T03:16:24.966Z,101761.8
2022-10-20T03:18:55.485Z,101752.89
2022-10-20T03:21:24.771Z,101747.63
2022-10-20T03:23:54.646Z,101751.67
2022-10-20T03:26:24.775Z,101746.41
2022-10-20T03:28:54.705Z,101740.02
2022-10-20T03:31:25.018Z,101735.28
2022-10-20T03:33:55.000Z,101730.38
2022-10-20T03:36:24.526Z,101726.65
2022-10-20T03:38:54.550Z,101721.72
2022-10-20T03:41:24.597Z,101716.54999999999
2022-10-20T03:43:54.615Z,101706.59000000001
2022-10-20T03:46:24.613Z,101701.78
2022-10-20T03:48:54.554Z,101712.34
2022-10-20T03:51:24.540Z,101713.14
2022-10-20T03:53:54.771Z,101705.47
2022-10-20T03:56:24.589Z,101703.81999999999
2022-10-20T03:58:54.630Z,101697.81
2022-10-20T04:01:29.390Z,101691.16
2022-10-20T04:03:54.724Z,101697.19
2022-10-20T04:06:25.254Z,101697.74
2022-10-20T04:08:54.954Z,101693.92
2022-10-20T04:11:25.935Z,101691.92
2022-10-20T04:13:54.588Z,101684.93999999999
2022-10-20T04:16:24.679Z,101684.34
2022-10-20T04:18:54.990Z,101686.37999999999
2022-10-20T04:21:25.432Z,101690.52
2022-10-20T04:23:54.691Z,101682.9
2022-10-20T04:26:24.530Z,101680.57
2022-10-20T04:28:55.335Z,101680.56
2022-10-20T04:31:24.703Z,101670.92
2022-10-20T04:38:55.559Z,101664.84
2022-10-20T04:41:24.653Z,101669.65
2022-10-20T04:43:54.530Z,101670.06
2022-10-20T04:46:25.752Z,101657.12
2022-10-20T04:48:54.593Z,101645.9
2022-10-20T04:51:24.796Z,101643.34
2022-10-20T04:53:54.686Z,101630.12999999999
2022-10-20T04:56:24.560Z,101632.79
2022-10-20T04:58:56.124Z,101627.98
2022-10-20T05:01:26.802Z,101618.09
2022-10-20T05:03:55.178Z,101611.95
2022-10-20T05:06:26.268Z,101613.73
2022-10-20T05:08:56.622Z,101607.2
2022-10-20T05:11:27.641Z,101601.45
2022-10-20T05:13:55.196Z,101586.67
2022-10-20T05:16:26.217Z,101583.17
2022-10-20T05:18:56.289Z,101578.47
2022-10-20T05:26:26.269Z,101553.17
2022-10-20T05:28:54.960Z,101547.43999999999
2022-10-20T05:31:24.606Z,101547.38
2022-10-20T05:33:55.958Z,101549.77
2022-10-20T05:36:26.494Z,101549.31
2022-10-20T05:38:55.617Z,101536.45
2022-10-20T05:41:26.603Z,101540.55
2022-10-20T05:43:57.372Z,101525.8
2022-10-20T05:46:25.960Z,101521.09
2022-10-20T05:48:57.186Z,101525.7
2022-10-20T05:51:27.907Z,101531.24
2022-10-20T05:56:25.886Z,101522.09
2022-10-20T05:58:55.617Z,101519.78
2022-10-20T06:01:26.558Z,101512.17
2022-10-20T06:03:56.136Z,101512.0
2022-10-20T06:06:27.281Z,101518.67
2022-10-20T06:08:57.660Z,101513.06
2022-10-20T06:11:27.406Z,101512.11
2022-10-20T06:13:55.526Z,101508.22
2022-10-20T06:16:26.094Z,101517.69
2022-10-20T06:18:57.279Z,101523.22
2022-10-20T06:21:27.034Z,101514.15
2022-10-20T06:23:56.798Z,101516.18999999999
2022-10-20T06:26:29.060Z,101511.1
2022-10-20T06:29:01.187Z,101500.41
2022-10-20T06:31:26.583Z,101494.11
2022-10-20T06:33:55.563Z,101481.19
2022-10-20T06:36:26.319Z,101485.77
2022-10-20T06:38:56.271Z,101494.61
2022-10-20T06:41:25.920Z,101499.75
2022-10-20T06:43:58.158Z,101498.05
2022-10-20T06:46:26.031Z,101494.67
2022-10-20T06:48:57.903Z,101492.56
2022-10-20T06:51:25.478Z,101495.62
2022-10-20T06:53:55.139Z,101498.08
2022-10-20T06:56:27.897Z,101493.97
2022-10-20T06:58:56.361Z,101498.18000000001
2022-10-20T07:01:26.087Z,101497.39
2022-10-20T07:03:56.654Z,101501.45
2022-10-20T07:06:27.766Z,101502.56000000001
2022-10-20T07:08:55.445Z,101503.2
2022-10-20T07:11:27.468Z,101499.15999999999
2022-10-20T07:13:56.679Z,101485.86
2022-10-20T07:16:26.629Z,101484.86
2022-10-20T07:18:56.231Z,101481.53
2022-10-20T07:21:30.599Z,101484.64
2022-10-20T07:23:55.508Z,101488.86
2022-10-20T07:26:27.308Z,101497.34
2022-10-20T07:28:56.950Z,101488.12000000001
2022-10-20T07:31:26.635Z,101484.79999999999
2022-10-20T07:34:06.716Z,101482.67
2022-10-20T07:36:26.131Z,101464.72
2022-10-20T07:38:56.724Z,101451.42
2022-10-20T07:41:26.087Z,101451.19
2022-10-20T07:43:56.067Z,101450.3
2022-10-20T07:46:25.293Z,101452.82999999999
2022-10-20T07:48:54.849Z,101463.55
2022-10-20T07:51:27.504Z,101461.0
2022-10-20T07:53:59.768Z,101462.34
2022-10-20T07:56:28.306Z,101451.86
2022-10-20T07:58:55.205Z,101452.66
2022-10-20T08:01:24.981Z,101451.34000000001
2022-10-20T08:03:54.757Z,101435.44
2022-10-20T08:06:25.608Z,101440.39
2022-10-20T08:08:54.907Z,101426.11
2022-10-20T08:11:25.836Z,101419.0
2022-10-20T08:13:54.724Z,101420.68000000001
2022-10-20T08:16:25.566Z,101428.78
2022-10-20T08:21:24.882Z,101417.75
2022-10-20T08:23:55.037Z,101426.54
2022-10-20T08:26:25.646Z,101407.9
2022-10-20T08:28:54.790Z,101406.42
2022-10-20T08:31:24.815Z,101406.42
2022-10-20T08:33:56.029Z,101394.45
2022-10-20T08:36:25.082Z,101407.01000000001
2022-10-20T08:38:55.451Z,101420.03
2022-10-20T08:41:38.728Z,101414.59999999999
2022-10-20T08:43:57.399Z,101411.73999999999
2022-10-20T08:46:29.174Z,101399.53
2022-10-20T08:48:55.071Z,101392.62999999999
2022-10-20T08:51:29.835Z,101367.98999999999
2022-10-20T08:53:57.828Z,101369.64
2022-10-20T08:56:27.973Z,101366.31
2022-10-20T08:58:55.391Z,101368.72
2022-10-20T09:01:26.791Z,101370.08
2022-10-20T09:03:57.713Z,101364.65
2022-10-20T09:06:24.796Z,101364.65
2022-10-20T09:08:57.092Z,101374.05
2022-10-20T09:11:30.486Z,101370.63
2022-10-20T09:13:54.659Z,101359.14
2022-10-20T09:16:40.712Z,101369.09000000001
2022-10-20T09:18:56.642Z,101365.99
2022-10-20T09:21:25.211Z,101352.86
2022-10-20T09:24:00.138Z,101338.81
2022-10-20T09:26:54.138Z,101333.67
2022-10-20T09:29:13.100Z,101329.92
2022-10-20T09:31:33.122Z,101327.42
2022-10-20T09:33:54.648Z,101324.55
2022-10-20T09:36:30.449Z,101315.85
2022-10-20T09:38:55.113Z,101324.15999999999
2022-10-20T09:41:28.809Z,101309.45
2022-10-20T09:43:58.398Z,101310.58
2022-10-20T09:46:27.762Z,101308.73
2022-10-20T09:48:55.720Z,101292.38
2022-10-20T09:51:26.851Z,101303.81
2022-10-20T09:53:59.715Z,101294.48
2022-10-20T09:56:27.659Z,101296.19
2022-10-20T09:58:56.802Z,101281.58
2022-10-20T10:01:24.883Z,101283.14
2022-10-20T10:04:00.745Z,101279.98999999999
2022-10-20T10:06:30.289Z,101286.28
2022-10-20T10:08:56.625Z,101276.15
2022-10-20T10:11:32.156Z,101265.29000000001
2022-10-20T10:13:54.717Z,101266.03
2022-10-20T10:16:25.207Z,101257.95000000001
2022-10-20T10:18:58.828Z,101261.83
2022-10-20T10:21:25.135Z,101262.56
2022-10-20T10:23:58.139Z,101259.28
2022-10-20T10:26:43.205Z,101251.88
2022-10-20T10:28:57.388Z,101244.31
2022-10-20T10:31:26.218Z,101246.33
2022-10-20T10:34:11.637Z,101259.13
2022-10-20T10:36:30.206Z,101261.51999999999
2022-10-20T10:38:55.706Z,101257.31
2022-10-20T10:41:43.149Z,101251.76
2022-10-20T10:44:01.680Z,101252.97
2022-10-20T10:46:27.045Z,101249.91
2022-10-20T10:49:09.565Z,101246.77
2022-10-20T10:51:37.556Z,101247.5
2022-10-20T10:54:11.687Z,101247.27
2022-10-20T10:56:33.885Z,101239.15
2022-10-20T10:58:57.555Z,101232.26
2022-10-20T11:01:42.300Z,101237.78
2022-10-20T11:04:12.521Z,101234.77
2022-10-20T11:06:37.480Z,101236.11
2022-10-20T11:09:04.616Z,101232.18000000001
2022-10-20T11:11:38.810Z,101222.36
2022-10-20T11:14:07.113Z,101223.95
2022-10-20T11:16:36.180Z,101220.28
2022-10-20T11:19:14.548Z,101217.4
2022-10-20T11:21:31.898Z,101202.38
2022-10-20T11:24:06.645Z,101205.96
2022-10-20T11:26:31.771Z,101199.7
2022-10-20T11:28:56.600Z,101205.07
2022-10-20T11:31:30.160Z,101200.45999999999
2022-10-20T11:34:00.916Z,101200.67
2022-10-20T11:36:31.260Z,101182.98
2022-10-20T11:38:55.394Z,101201.76
2022-10-20T11:41:31.218Z,101197.92
2022-10-20T11:43:59.252Z,101197.81
2022-10-20T11:46:32.798Z,101196.56999999999
2022-10-20T11:51:44.656Z,101186.15999999999
2022-10-20T11:54:12.145Z,101184.09
2022-10-20T11:56:40.690Z,101187.0
2022-10-20T11:59:13.578Z,101187.83
2022-10-20T12:01:33.449Z,101174.85
2022-10-20T12:04:14.280Z,101169.51000000001
2022-10-20T12:06:43.246Z,101166.41
2022-10-20T12:09:14.135Z,101164.31
2022-10-20T12:11:29.661Z,101161.06999999999
2022-10-20T12:14:02.644Z,101164.67
2022-10-20T12:16:44.670Z,101158.74
2022-10-20T12:19:05.801Z,101150.95
2022-10-20T12:21:44.485Z,101143.78
2022-10-20T12:24:06.762Z,101138.5
2022-10-20T12:26:36.627Z,101129.29000000001
2022-10-20T12:28:55.642Z,101127.92
2022-10-20T12:31:44.692Z,101129.94
2022-10-20T12:34:00.729Z,101118.02
2022-10-20T12:36:31.614Z,101117.67
2022-10-20T12:39:08.953Z,101122.67
2022-10-20T12:41:28.056Z,101137.75
2022-10-20T12:44:00.970Z,101122.64
2022-10-20T12:48:59.160Z,101112.05
2022-10-20T12:51:35.232Z,101109.55
2022-10-20T12:53:59.551Z,101121.06
2022-10-20T12:56:31.024Z,101111.55
2022-10-20T12:59:08.065Z,101106.06
2022-10-20T13:01:27.317Z,101108.08
2022-10-20T13:03:54.931Z,101100.2
2022-10-20T13:06:43.130Z,101091.83
2022-10-20T13:09:14.576Z,101092.94
2022-10-20T13:14:04.414Z,101087.97
2022-10-20T13:16:30.512Z,101118.70999999999
2022-10-20T13:18:55.088Z,101109.70999999999
2022-10-20T13:21:29.347Z,101107.54
2022-10-20T13:24:02.199Z,101112.75
2022-10-20T13:26:28.677Z,101110.06
2022-10-20T13:28:57.622Z,101112.01
2022-10-20T13:31:30.173Z,101106.92
2022-10-20T13:34:05.376Z,101105.76999999999
2022-10-20T13:36:41.641Z,101106.09
2022-10-20T13:39:01.316Z,101101.84000000001
2022-10-20T13:41:33.157Z,101094.33
2022-10-20T13:44:04.277Z,101093.23000000001
2022-10-20T13:46:39.427Z,101089.26
2022-10-20T13:49:12.627Z,101089.49
2022-10-20T13:51:27.863Z,101090.23999999999
2022-10-20T13:53:58.785Z,101092.08
2022-10-20T13:56:34.888Z,101089.04
2022-10-20T14:01:26.163Z,101089.03
2022-10-20T14:03:55.024Z,101081.56
2022-10-20T14:06:30.082Z,101085.77
2022-10-20T14:08:55.783Z,101078.41
2022-10-20T14:11:29.681Z,101072.16
2022-10-20T14:13:55.960Z,101065.06000000001
2022-10-20T14:16:29.302Z,101054.1
2022-10-20T14:19:05.029Z,101051.2
2022-10-20T14:21:27.699Z,101044.09000000001
2022-10-20T14:24:00.281Z,101048.89
2022-10-20T14:26:24.999Z,101039.75
2022-10-20T14:28:54.992Z,101048.27
2022-10-20T14:31:25.182Z,101044.05
2022-10-20T14:33:54.959Z,101042.02
2022-10-20T14:38:59.631Z,101045.33
2022-10-20T14:41:27.095Z,101057.92
2022-10-20T14:44:02.080Z,101057.51000000001
2022-10-20T14:48:55.760Z,101063.51
2022-10-20T14:51:28.869Z,101063.81
2022-10-20T14:54:14.269Z,101062.34
2022-10-20T14:56:24.805Z,101054.52
2022-10-20T14:58:58.013Z,101056.67
2022-10-20T15:01:28.314Z,101050.95999999999
2022-10-20T15:04:06.144Z,101037.69
2022-10-20T15:06:24.796Z,101035.51
2022-10-20T15:08:56.821Z,101037.45
2022-10-20T15:13:58.428Z,101039.65
2022-10-20T15:16:40.443Z,101041.95999999999
2022-10-20T15:19:14.580Z,101036.6
2022-10-20T15:21:24.751Z,101037.05
2022-10-20T15:23:54.756Z,101038.09
2022-10-20T15:26:24.971Z,101039.65
2022-10-20T15:28:54.822Z,101038.4
2022-10-20T15:31:27.408Z,101037.84000000001
2022-10-20T15:33:57.039Z,101034.92
2022-10-20T15:36:28.671Z,101031.45
2022-10-20T15:43:55.665Z,101036.94
2022-10-20T15:46:24.772Z,101031.97
2022-10-20T15:48:54.944Z,101028.36
2022-10-20T15:51:28.291Z,101026.59
2022-10-20T15:53:55.211Z,101021.94
2022-10-20T15:56:25.379Z,101018.59
2022-10-20T15:58:55.012Z,101021.98
2022-10-20T16:03:55.358Z,101014.54
2022-10-20T16:06:24.969Z,101013.65
2022-10-20T16:08:55.061Z,101013.01999999999
2022-10-20T16:11:24.935Z,101008.58
2022-10-20T16:13:54.771Z,101003.41
2022-10-20T16:16:25.085Z,101004.40999999999
2022-10-20T16:18:54.786Z,100998.77
2022-10-20T16:21:24.984Z,100995.76
2022-10-20T16:23:55.116Z,100995.03
2022-10-20T16:28:54.983Z,100990.28
2022-10-20T16:31:24.864Z,100987.37999999999
2022-10-20T16:36:24.813Z,100990.19
2022-10-20T16:38:55.969Z,100988.87
2022-10-20T16:41:24.850Z,100985.67
2022-10-20T16:46:25.258Z,100981.25
2022-10-20T16:51:25.324Z,100988.7
2022-10-20T16:53:57.361Z,100988.7
2022-10-20T16:56:25.924Z,100988.36
2022-10-20T16:58:55.469Z,100992.44
2022-10-20T17:01:24.970Z,100989.04
2022-10-20T17:06:25.850Z,100990.52
2022-10-20T17:08:58.232Z,100992.9
2022-10-20T17:11:27.194Z,100998.11
2022-10-20T17:13:55.850Z,101000.51
2022-10-20T17:16:30.805Z,101003.75
2022-10-20T17:18:56.391Z,101002.45999999999
2022-10-20T17:23:55.534Z,101001.14
2022-10-20T17:26:26.847Z,101000.01999999999
2022-10-20T17:28:56.190Z,101001.2
2022-10-20T17:31:25.714Z,100997.67
2022-10-20T17:33:57.367Z,100996.18000000001
2022-10-20T17:36:25.664Z,100998.42
2022-10-20T17:38:57.661Z,100992.64
2022-10-20T17:43:58.338Z,100983.69
2022-10-20T17:46:24.847Z,100984.63
2022-10-20T17:48:55.200Z,100987.83
2022-10-20T17:56:27.088Z,100987.17
2022-10-20T17:58:56.176Z,100984.09
2022-10-20T18:01:26.722Z,100989.31
2022-10-20T18:03:57.371Z,100986.87999999999
2022-10-20T18:06:31.171Z,100984.12
2022-10-20T18:08:57.140Z,100978.23
2022-10-20T18:11:27.662Z,100975.23
2022-10-20T18:13:56.511Z,100975.45999999999
2022-10-20T18:16:26.558Z,100975.12000000001
2022-10-20T18:21:26.639Z,100979.1
2022-10-20T18:23:55.690Z,100978.87
2022-10-20T18:26:25.390Z,100976.88
2022-10-20T18:28:55.021Z,100973.99
2022-10-20T18:31:28.041Z,100971.87
2022-10-20T18:33:59.413Z,100963.59
2022-10-20T18:38:55.550Z,100963.19
2022-10-20T18:41:27.926Z,100963.09
2022-10-20T18:43:58.136Z,100963.01
2022-10-20T18:46:26.237Z,100959.36
2022-10-20T18:48:56.003Z,100960.02
2022-10-20T18:51:25.547Z,100958.06
2022-10-20T18:53:56.661Z,100952.15
2022-10-20T18:58:56.760Z,100944.23000000001
2022-10-20T19:01:26.777Z,100942.3
2022-10-20T19:03:57.093Z,100940.29000000001
2022-10-20T19:11:27.046Z,100937.33
2022-10-20T19:13:55.872Z,100935.28
2022-10-20T19:16:26.566Z,100929.16
2022-10-20T19:18:56.756Z,100928.75
2022-10-20T19:21:27.533Z,100927.06
2022-10-20T19:23:57.720Z,100924.22
2022-10-20T19:26:26.541Z,100920.54000000001
2022-10-20T19:28:59.033Z,100920.64
2022-10-20T19:31:27.467Z,100918.09
2022-10-20T19:33:57.965Z,100919.87000000001
2022-10-20T19:36:26.478Z,100912.01999999999
2022-10-20T19:38:56.006Z,100916.81999999999
2022-10-20T19:41:26.185Z,100915.01
2022-10-20T19:43:54.886Z,100910.04000000001
2022-10-20T19:46:25.146Z,100905.94
2022-10-20T19:48:56.478Z,100906.26999999999
2022-10-20T19:51:24.992Z,100904.06
2022-10-20T19:53:55.009Z,100907.79
2022-10-20T19:56:25.190Z,100903.23
2022-10-20T19:58:55.258Z,100906.06
2022-10-20T20:01:25.114Z,100902.56000000001
2022-10-20T20:03:54.918Z,100901.67
2022-10-20T20:06:25.599Z,100899.51999999999
2022-10-20T20:08:58.365Z,100902.59999999999
2022-10-20T20:11:26.458Z,100900.8
2022-10-20T20:13:56.984Z,100897.97
2022-10-20T20:18:55.476Z,100895.01000000001
2022-10-20T20:21:26.437Z,100886.06
2022-10-20T20:23:59.834Z,100881.62
2022-10-20T20:26:25.481Z,100880.36
2022-10-20T20:31:25.790Z,100878.42000000001
2022-10-20T20:33:55.929Z,100872.61
2022-10-20T20:36:25.910Z,100868.38
2022-10-20T20:38:57.467Z,100865.12
2022-10-20T20:41:26.453Z,100867.38
2022-10-20T20:43:55.209Z,100867.83
2022-10-20T20:51:26.113Z,100860.70999999999
2022-10-20T20:53:55.222Z,100863.42
2022-10-20T20:56:26.815Z,100857.2
2022-10-20T20:58:55.557Z,100864.5
2022-10-20T21:01:26.490Z,100868.92
2022-10-20T21:08:55.722Z,100871.57999999999
2022-10-20T21:13:57.837Z,100869.5
2022-10-20T21:16:27.125Z,100869.19
2022-10-20T21:18:56.917Z,100871.56999999999
2022-10-20T21:21:27.181Z,100870.98999999999
2022-10-20T21:23:56.139Z,100877.36
2022-10-20T21:26:27.541Z,100874.69
2022-10-20T21:28:55.517Z,100874.55
2022-10-20T21:31:26.764Z,100874.2
2022-10-20T21:33:56.649Z,100875.34000000001
2022-10-20T21:38:54.930Z,100865.93000000001
2022-10-20T21:41:26.691Z,100871.64
2022-10-20T21:43:57.667Z,100865.83
2022-10-20T21:48:58.562Z,100882.92
2022-10-20T21:51:27.690Z,100877.14
2022-10-20T21:53:55.937Z,100879.63
2022-10-20T21:56:25.809Z,100884.12
2022-10-20T21:58:55.335Z,100873.75
2022-10-20T22:01:25.218Z,100874.03
2022-10-20T22:06:27.328Z,100876.08
2022-10-20T22:08:57.286Z,100871.97
2022-10-20T22:11:28.412Z,100875.81999999999
2022-10-20T22:16:27.114Z,100866.42
2022-10-20T22:18:55.597Z,100862.8
2022-10-20T22:21:26.180Z,100867.85
2022-10-20T22:23:58.055Z,100872.20999999999
2022-10-20T22:26:26.418Z,100866.28
2022-10-20T22:28:56.524Z,100869.18
2022-10-20T22:33:56.982Z,100875.94
2022-10-20T22:36:26.080Z,100870.06
2022-10-20T22:38:55.746Z,100873.69
2022-10-20T22:41:25.489Z,100866.76999999999
2022-10-20T22:43:56.251Z,100870.36
2022-10-20T22:46:25.264Z,100863.33
2022-10-20T22:48:55.211Z,100858.33
2022-10-20T22:51:25.023Z,100856.8
2022-10-20T22:53:55.351Z,100855.92
2022-10-20T22:56:25.124Z,100861.72
2022-10-20T22:58:55.011Z,100849.01999999999
2022-10-20T23:01:25.213Z,100851.36
2022-10-20T23:03:54.902Z,100860.26000000001
2022-10-20T23:06:25.504Z,100858.26
2022-10-20T23:08:55.600Z,100849.21
2022-10-20T23:11:24.963Z,100854.72
2022-10-20T23:13:55.165Z,100844.51000000001
2022-10-20T23:18:55.334Z,100841.35
2022-10-20T23:21:25.498Z,100846.45000000001
2022-10-20T23:23:54.942Z,100839.83
2022-10-20T23:26:25.139Z,100833.67
2022-10-20T23:28:55.058Z,100834.09
2022-10-20T23:31:25.297Z,100838.28
2022-10-20T23:33:55.688Z,100840.26
2022-10-20T23:36:25.075Z,100835.67
2022-10-20T23:38:55.186Z,100830.3
2022-10-20T23:41:24.983Z,100829.52
2022-10-20T23:43:55.171Z,100836.51999999999
2022-10-20T23:46:26.886Z,100843.89
2022-10-20T23:48:54.920Z,100846.94
2022-10-20T23:51:25.013Z,100844.9
2022-10-20T23:53:55.694Z,100845.82
2022-10-20T23:56:25.357Z,100838.56
